sensor_id;sensor_type;location;lat;lon;timestamp;pressure;altitude;pressure_sealevel;temperature;humidity
44872;BME280;30602;51.060;17.226;2023-02-12T00:00:50;103053.86;;;4.99;100.00
44872;BME280;30602;51.060;17.226;2023-02-12T00:04:05;103055.49;;;5.02;100.00
44872;BME280;30602;51.060;17.226;2023-02-12T00:07:30;103053.05;;;5.05;100.00
44872;BME280;30602;51.060;17.226;2023-02-12T00:10:47;103055.93;;;5.08;100.00
44872;BME280;30602;51.060;17.226;2023-02-12T00:14:38;103054.69;;;5.09;100.00
44872;BME280;30602;51.060;17.226;2023-02-12T00:18:14;103059.50;;;5.10;100.00
44872;BME280;30602;51.060;17.226;2023-02-12T00:21:36;103062.41;;;5.07;100.00
44872;BME280;30602;51.060;17.226;2023-02-12T00:24:59;103053.92;;;5.03;100.00
44872;BME280;30602;51.060;17.226;2023-02-12T00:28:17;103058.20;;;5.01;100.00
44872;BME280;30602;51.060;17.226;2023-02-12T00:31:57;103063.27;;;4.99;100.00
44872;BME280;30602;51.060;17.226;2023-02-12T00:35:12;103063.94;;;4.97;100.00
44872;BME280;30602;51.060;17.226;2023-02-12T00:39:22;103058.22;;;4.96;100.00
44872;BME280;30602;51.060;17.226;2023-02-12T00:42:35;103059.24;;;4.89;100.00
44872;BME280;30602;51.060;17.226;2023-02-12T00:45:53;103060.17;;;4.93;100.00
44872;BME280;30602;51.060;17.226;2023-02-12T00:49:09;103065.55;;;4.93;100.00
44872;BME280;30602;51.060;17.226;2023-02-12T00:52:21;103070.36;;;5.00;100.00
44872;BME280;30602;51.060;17.226;2023-02-12T00:55:37;103072.91;;;5.08;100.00
44872;BME280;30602;51.060;17.226;2023-02-12T00:59:41;103075.80;;;5.11;100.00
44872;BME280;30602;51.060;17.226;2023-02-12T01:03:18;103073.81;;;5.11;100.00
44872;BME280;30602;51.060;17.226;2023-02-12T01:06:33;103082.77;;;5.10;100.00
44872;BME280;30602;51.060;17.226;2023-02-12T01:10:16;103099.84;;;5.17;100.00
44872;BME280;30602;51.060;17.226;2023-02-12T01:14:03;103102.72;;;5.18;100.00
44872;BME280;30602;51.060;17.226;2023-02-12T01:17:56;103106.23;;;5.15;100.00
44872;BME280;30602;51.060;17.226;2023-02-12T01:21:38;103118.06;;;5.15;100.00
44872;BME280;30602;51.060;17.226;2023-02-12T01:24:52;103126.55;;;5.09;100.00
44872;BME280;30602;51.060;17.226;2023-02-12T01:28:10;103124.96;;;5.13;100.00
44872;BME280;30602;51.060;17.226;2023-02-12T01:31:31;103119.48;;;5.07;100.00
44872;BME280;30602;51.060;17.226;2023-02-12T01:35:11;103129.54;;;5.14;100.00
44872;BME280;30602;51.060;17.226;2023-02-12T01:38:29;103123.34;;;5.13;100.00
44872;BME280;30602;51.060;17.226;2023-02-12T01:42:05;103121.36;;;5.11;100.00
44872;BME280;30602;51.060;17.226;2023-02-12T01:48:52;103142.34;;;5.11;100.00
44872;BME280;30602;51.060;17.226;2023-02-12T01:52:29;103141.73;;;5.11;100.00
44872;BME280;30602;51.060;17.226;2023-02-12T01:55:45;103145.46;;;5.08;100.00
44872;BME280;30602;51.060;17.226;2023-02-12T01:59:02;103145.27;;;5.08;100.00
44872;BME280;30602;51.060;17.226;2023-02-12T02:02:11;103158.96;;;5.07;100.00
44872;BME280;30602;51.060;17.226;2023-02-12T02:05:34;103154.99;;;5.09;100.00
44872;BME280;30602;51.060;17.226;2023-02-12T02:08:49;103153.53;;;5.07;100.00
44872;BME280;30602;51.060;17.226;2023-02-12T02:12:28;103147.90;;;4.99;100.00
44872;BME280;30602;51.060;17.226;2023-02-12T02:15:55;103158.77;;;4.98;100.00
44872;BME280;30602;51.060;17.226;2023-02-12T02:33:21;103178.13;;;5.12;100.00
44872;BME280;30602;51.060;17.226;2023-02-12T02:37:02;103178.09;;;5.09;100.00
44872;BME280;30602;51.060;17.226;2023-02-12T02:40:18;103187.37;;;5.08;100.00
44872;BME280;30602;51.060;17.226;2023-02-12T02:43:38;103187.04;;;5.08;100.00
44872;BME280;30602;51.060;17.226;2023-02-12T02:47:08;103191.88;;;5.06;100.00
44872;BME280;30602;51.060;17.226;2023-02-12T02:50:26;103192.05;;;5.04;100.00
44872;BME280;30602;51.060;17.226;2023-02-12T02:53:54;103202.32;;;5.04;100.00
44872;BME280;30602;51.060;17.226;2023-02-12T03:00:55;103210.40;;;4.99;100.00
44872;BME280;30602;51.060;17.226;2023-02-12T03:04:17;103216.39;;;5.05;100.00
44872;BME280;30602;51.060;17.226;2023-02-12T03:07:37;103218.12;;;4.99;100.00
44872;BME280;30602;51.060;17.226;2023-02-12T03:10:58;103218.09;;;5.01;100.00
44872;BME280;30602;51.060;17.226;2023-02-12T03:14:22;103225.15;;;5.03;100.00
44872;BME280;30602;51.060;17.226;2023-02-12T03:17:44;103230.71;;;4.96;100.00
44872;BME280;30602;51.060;17.226;2023-02-12T03:21:02;103239.38;;;4.96;100.00
44872;BME280;30602;51.060;17.226;2023-02-12T03:28:03;103238.11;;;4.92;100.00
44872;BME280;30602;51.060;17.226;2023-02-12T03:31:32;103237.38;;;4.92;100.00
44872;BME280;30602;51.060;17.226;2023-02-12T03:38:37;103251.67;;;4.88;100.00
44872;BME280;30602;51.060;17.226;2023-02-12T03:42:02;103258.30;;;4.87;100.00
44872;BME280;30602;51.060;17.226;2023-02-12T03:49:07;103275.32;;;4.94;100.00
44872;BME280;30602;51.060;17.226;2023-02-12T03:52:50;103280.68;;;4.99;100.00
44872;BME280;30602;51.060;17.226;2023-02-12T04:00:03;103276.80;;;4.94;100.00
44872;BME280;30602;51.060;17.226;2023-02-12T04:04:09;103285.05;;;4.93;100.00
44872;BME280;30602;51.060;17.226;2023-02-12T04:07:31;103288.52;;;4.94;100.00
44872;BME280;30602;51.060;17.226;2023-02-12T04:14:23;103300.67;;;4.86;100.00
44872;BME280;30602;51.060;17.226;2023-02-12T04:28:15;103316.87;;;4.74;100.00
44872;BME280;30602;51.060;17.226;2023-02-12T04:31:32;103319.53;;;4.83;100.00
44872;BME280;30602;51.060;17.226;2023-02-12T04:41:36;103335.28;;;4.88;100.00
44872;BME280;30602;51.060;17.226;2023-02-12T04:44:52;103340.56;;;4.88;100.00
44872;BME280;30602;51.060;17.226;2023-02-12T04:48:21;103343.55;;;4.87;100.00
44872;BME280;30602;51.060;17.226;2023-02-12T04:51:31;103350.12;;;4.86;100.00
44872;BME280;30602;51.060;17.226;2023-02-12T04:54:46;103350.74;;;4.78;100.00
44872;BME280;30602;51.060;17.226;2023-02-12T04:58:09;103348.09;;;4.78;100.00
44872;BME280;30602;51.060;17.226;2023-02-12T05:01:20;103354.34;;;4.77;100.00
44872;BME280;30602;51.060;17.226;2023-02-12T05:04:28;103353.77;;;4.75;100.00
44872;BME280;30602;51.060;17.226;2023-02-12T05:07:43;103364.21;;;4.75;100.00
44872;BME280;30602;51.060;17.226;2023-02-12T05:10:51;103366.34;;;4.72;100.00
44872;BME280;30602;51.060;17.226;2023-02-12T05:13:59;103368.34;;;4.70;100.00
44872;BME280;30602;51.060;17.226;2023-02-12T05:17:07;103370.77;;;4.70;100.00
44872;BME280;30602;51.060;17.226;2023-02-12T05:20:20;103374.26;;;4.76;100.00
44872;BME280;30602;51.060;17.226;2023-02-12T05:23:32;103376.77;;;4.81;100.00
44872;BME280;30602;51.060;17.226;2023-02-12T05:26:48;103377.71;;;4.78;100.00
44872;BME280;30602;51.060;17.226;2023-02-12T05:30:01;103380.82;;;4.76;100.00
44872;BME280;30602;51.060;17.226;2023-02-12T05:33:13;103382.77;;;4.78;100.00
44872;BME280;30602;51.060;17.226;2023-02-12T05:36:47;103387.34;;;4.75;100.00
44872;BME280;30602;51.060;17.226;2023-02-12T05:40:22;103392.01;;;4.70;100.00
44872;BME280;30602;51.060;17.226;2023-02-12T05:43:33;103395.16;;;4.66;100.00
44872;BME280;30602;51.060;17.226;2023-02-12T05:46:45;103402.55;;;4.60;100.00
44872;BME280;30602;51.060;17.226;2023-02-12T05:49:58;103408.61;;;4.60;100.00
44872;BME280;30602;51.060;17.226;2023-02-12T05:53:13;103415.92;;;4.60;100.00
44872;BME280;30602;51.060;17.226;2023-02-12T05:56:25;103421.34;;;4.59;100.00
44872;BME280;30602;51.060;17.226;2023-02-12T06:00:03;103427.64;;;4.56;100.00
44872;BME280;30602;51.060;17.226;2023-02-12T06:03:11;103435.87;;;4.63;100.00
44872;BME280;30602;51.060;17.226;2023-02-12T06:06:46;103445.83;;;4.75;100.00
44872;BME280;30602;51.060;17.226;2023-02-12T06:10:03;103451.99;;;4.74;100.00
44872;BME280;30602;51.060;17.226;2023-02-12T06:13:39;103453.82;;;4.73;100.00
44872;BME280;30602;51.060;17.226;2023-02-12T06:16:57;103459.41;;;4.67;100.00
44872;BME280;30602;51.060;17.226;2023-02-12T06:20:08;103465.21;;;4.66;100.00
44872;BME280;30602;51.060;17.226;2023-02-12T06:23:21;103472.09;;;4.63;100.00
44872;BME280;30602;51.060;17.226;2023-02-12T06:27:10;103463.63;;;4.46;100.00
44872;BME280;30602;51.060;17.226;2023-02-12T06:30:23;103485.67;;;4.57;100.00
44872;BME280;30602;51.060;17.226;2023-02-12T06:33:31;103491.14;;;4.60;100.00
44872;BME280;30602;51.060;17.226;2023-02-12T06:36:46;103501.13;;;4.58;100.00
44872;BME280;30602;51.060;17.226;2023-02-12T06:39:58;103501.30;;;4.59;100.00
44872;BME280;30602;51.060;17.226;2023-02-12T06:43:14;103494.03;;;4.52;100.00
44872;BME280;30602;51.060;17.226;2023-02-12T06:46:25;103506.02;;;4.56;100.00
44872;BME280;30602;51.060;17.226;2023-02-12T06:49:39;103514.67;;;4.61;100.00
44872;BME280;30602;51.060;17.226;2023-02-12T06:52:52;103515.36;;;4.65;100.00
44872;BME280;30602;51.060;17.226;2023-02-12T06:56:22;103520.02;;;4.69;100.00
44872;BME280;30602;51.060;17.226;2023-02-12T06:59:31;103521.72;;;4.70;100.00
44872;BME280;30602;51.060;17.226;2023-02-12T07:02:57;103524.59;;;4.64;100.00
44872;BME280;30602;51.060;17.226;2023-02-12T07:06:08;103531.07;;;4.70;100.00
44872;BME280;30602;51.060;17.226;2023-02-12T07:09:45;103535.52;;;4.71;100.00
44872;BME280;30602;51.060;17.226;2023-02-12T07:12:53;103539.16;;;4.73;100.00
44872;BME280;30602;51.060;17.226;2023-02-12T07:16:27;103547.53;;;4.73;100.00
44872;BME280;30602;51.060;17.226;2023-02-12T07:19:38;103548.37;;;4.71;100.00
44872;BME280;30602;51.060;17.226;2023-02-12T07:22:49;103557.12;;;4.70;100.00
44872;BME280;30602;51.060;17.226;2023-02-12T07:26:11;103558.77;;;4.70;100.00
44872;BME280;30602;51.060;17.226;2023-02-12T07:29:25;103567.45;;;4.72;100.00
44872;BME280;30602;51.060;17.226;2023-02-12T07:32:36;103568.23;;;4.71;100.00
44872;BME280;30602;51.060;17.226;2023-02-12T07:36:13;103570.27;;;4.75;100.00
44872;BME280;30602;51.060;17.226;2023-02-12T07:39:28;103572.11;;;4.89;100.00
44872;BME280;30602;51.060;17.226;2023-02-12T07:42:42;103571.90;;;4.93;100.00
44872;BME280;30602;51.060;17.226;2023-02-12T07:46:05;103569.63;;;4.93;100.00
44872;BME280;30602;51.060;17.226;2023-02-12T07:49:25;103571.45;;;4.95;100.00
44872;BME280;30602;51.060;17.226;2023-02-12T07:52:51;103576.26;;;4.96;100.00
44872;BME280;30602;51.060;17.226;2023-02-12T07:56:25;103573.90;;;4.95;100.00
44872;BME280;30602;51.060;17.226;2023-02-12T07:59:58;103582.69;;;4.94;100.00
44872;BME280;30602;51.060;17.226;2023-02-12T08:03:12;103587.56;;;4.94;100.00
44872;BME280;30602;51.060;17.226;2023-02-12T08:06:45;103593.48;;;4.96;100.00
44872;BME280;30602;51.060;17.226;2023-02-12T08:09:58;103591.09;;;4.98;100.00
44872;BME280;30602;51.060;17.226;2023-02-12T08:13:59;103595.16;;;4.94;100.00
44872;BME280;30602;51.060;17.226;2023-02-12T08:17:08;103595.01;;;5.06;100.00
44872;BME280;30602;51.060;17.226;2023-02-12T08:20:19;103597.17;;;5.04;100.00
44872;BME280;30602;51.060;17.226;2023-02-12T08:23:30;103598.92;;;5.12;100.00
44872;BME280;30602;51.060;17.226;2023-02-12T08:27:04;103597.30;;;5.19;100.00
44872;BME280;30602;51.060;17.226;2023-02-12T08:30:14;103598.07;;;5.30;100.00
44872;BME280;30602;51.060;17.226;2023-02-12T08:33:31;103598.03;;;5.30;100.00
44872;BME280;30602;51.060;17.226;2023-02-12T08:36:45;103596.66;;;5.29;100.00
44872;BME280;30602;51.060;17.226;2023-02-12T08:40:21;103600.45;;;5.31;100.00
44872;BME280;30602;51.060;17.226;2023-02-12T08:44:09;103601.52;;;5.31;100.00
44872;BME280;30602;51.060;17.226;2023-02-12T08:47:36;103611.83;;;5.31;100.00
44872;BME280;30602;51.060;17.226;2023-02-12T08:51:21;103612.96;;;5.29;100.00
44872;BME280;30602;51.060;17.226;2023-02-12T08:54:40;103614.50;;;5.28;100.00
44872;BME280;30602;51.060;17.226;2023-02-12T08:57:56;103618.80;;;5.30;100.00
44872;BME280;30602;51.060;17.226;2023-02-12T09:01:13;103621.53;;;5.31;100.00
44872;BME280;30602;51.060;17.226;2023-02-12T09:04:41;103627.26;;;5.31;100.00
44872;BME280;30602;51.060;17.226;2023-02-12T09:07:57;103630.21;;;5.33;100.00
44872;BME280;30602;51.060;17.226;2023-02-12T09:11:11;103633.12;;;5.43;100.00
44872;BME280;30602;51.060;17.226;2023-02-12T09:14:52;103635.40;;;5.45;99.34
44872;BME280;30602;51.060;17.226;2023-02-12T09:18:02;103635.72;;;5.43;99.15
44872;BME280;30602;51.060;17.226;2023-02-12T09:21:50;103638.99;;;5.47;99.44
44872;BME280;30602;51.060;17.226;2023-02-12T09:25:39;103641.14;;;5.50;99.46
44872;BME280;30602;51.060;17.226;2023-02-12T09:28:53;103642.03;;;5.53;98.93
44872;BME280;30602;51.060;17.226;2023-02-12T09:32:13;103647.34;;;5.61;98.70
44872;BME280;30602;51.060;17.226;2023-02-12T09:35:29;103654.84;;;5.66;98.86
44872;BME280;30602;51.060;17.226;2023-02-12T09:38:59;103660.84;;;5.66;97.65
44872;BME280;30602;51.060;17.226;2023-02-12T09:49:53;103652.00;;;5.82;96.15
44872;BME280;30602;51.060;17.226;2023-02-12T09:53:24;103658.18;;;5.91;95.59
44872;BME280;30602;51.060;17.226;2023-02-12T09:57:21;103659.07;;;6.06;93.85
44872;BME280;30602;51.060;17.226;2023-02-12T10:00:53;103660.24;;;6.13;92.39
44872;BME280;30602;51.060;17.226;2023-02-12T10:04:27;103643.45;;;6.02;92.59
44872;BME280;30602;51.060;17.226;2023-02-12T10:21:58;103664.22;;;6.38;91.81
44872;BME280;30602;51.060;17.226;2023-02-12T10:26:00;103663.94;;;6.45;91.62
44872;BME280;30602;51.060;17.226;2023-02-12T10:29:20;103663.72;;;6.29;90.90
44872;BME280;30602;51.060;17.226;2023-02-12T10:32:42;103655.20;;;6.40;90.30
44872;BME280;30602;51.060;17.226;2023-02-12T10:36:01;103656.49;;;6.45;90.24
44872;BME280;30602;51.060;17.226;2023-02-12T10:39:40;103648.31;;;6.46;89.33
44872;BME280;30602;51.060;17.226;2023-02-12T10:42:52;103657.01;;;6.67;89.50
44872;BME280;30602;51.060;17.226;2023-02-12T10:46:20;103649.17;;;6.66;89.24
44872;BME280;30602;51.060;17.226;2023-02-12T10:49:32;103649.63;;;6.75;89.49
44872;BME280;30602;51.060;17.226;2023-02-12T10:52:52;103645.46;;;6.77;88.81
44872;BME280;30602;51.060;17.226;2023-02-12T10:56:24;103641.45;;;6.68;88.10
44872;BME280;30602;51.060;17.226;2023-02-12T10:59:37;103637.63;;;6.76;88.65
44872;BME280;30602;51.060;17.226;2023-02-12T11:03:17;103636.09;;;6.77;88.17
44872;BME280;30602;51.060;17.226;2023-02-12T11:06:19;103638.49;;;6.75;88.08
44872;BME280;30602;51.060;17.226;2023-02-12T11:13:00;103630.04;;;6.87;88.32
44872;BME280;30602;51.060;17.226;2023-02-12T11:16:35;103632.99;;;6.96;88.48
44872;BME280;30602;51.060;17.226;2023-02-12T11:23:41;103632.48;;;7.00;86.47
44872;BME280;30602;51.060;17.226;2023-02-12T11:27:24;103630.47;;;6.91;86.46
44872;BME280;30602;51.060;17.226;2023-02-12T11:38:57;103620.05;;;7.17;85.80
44872;BME280;30602;51.060;17.226;2023-02-12T11:42:17;103616.78;;;7.03;83.85
44872;BME280;30602;51.060;17.226;2023-02-12T11:45:36;103621.77;;;7.08;84.04
44872;BME280;30602;51.060;17.226;2023-02-12T11:48:57;103627.54;;;7.10;84.96
44872;BME280;30602;51.060;17.226;2023-02-12T11:55:34;103631.99;;;6.97;83.88
44872;BME280;30602;51.060;17.226;2023-02-12T11:58:45;103629.52;;;6.92;84.17
44872;BME280;30602;51.060;17.226;2023-02-12T12:01:55;103625.57;;;6.92;83.99
44872;BME280;30602;51.060;17.226;2023-02-12T12:05:12;103627.02;;;7.11;83.21
44872;BME280;30602;51.060;17.226;2023-02-12T12:08:35;103621.29;;;7.11;80.84
44872;BME280;30602;51.060;17.226;2023-02-12T12:15:35;103623.42;;;7.27;80.84
44872;BME280;30602;51.060;17.226;2023-02-12T12:19:18;103624.59;;;7.26;80.05
44872;BME280;30602;51.060;17.226;2023-02-12T12:26:21;103627.72;;;7.31;79.89
44872;BME280;30602;51.060;17.226;2023-02-12T12:29:58;103618.84;;;7.48;79.03
44872;BME280;30602;51.060;17.226;2023-02-12T12:33:32;103608.55;;;7.59;77.51
44872;BME280;30602;51.060;17.226;2023-02-12T12:47:15;103598.79;;;7.77;77.03
44872;BME280;30602;51.060;17.226;2023-02-12T13:22:27;103606.16;;;7.48;75.90
44872;BME280;30602;51.060;17.226;2023-02-12T13:29:11;103602.49;;;7.68;75.92
44872;BME280;30602;51.060;17.226;2023-02-12T13:33:03;103605.70;;;7.69;76.18
44872;BME280;30602;51.060;17.226;2023-02-12T13:36:41;103603.60;;;7.69;75.68
44872;BME280;30602;51.060;17.226;2023-02-12T13:39:57;103604.84;;;7.64;76.00
44872;BME280;30602;51.060;17.226;2023-02-12T13:46:51;103603.60;;;7.58;76.31
44872;BME280;30602;51.060;17.226;2023-02-12T13:57:00;103590.53;;;7.51;76.10
44872;BME280;30602;51.060;17.226;2023-02-12T14:04:24;103590.14;;;7.50;76.66
44872;BME280;30602;51.060;17.226;2023-02-12T14:07:53;103594.49;;;7.60;75.23
44872;BME280;30602;51.060;17.226;2023-02-12T14:11:12;103592.45;;;7.58;74.53
44872;BME280;30602;51.060;17.226;2023-02-12T14:14:35;103594.55;;;7.55;74.27
44872;BME280;30602;51.060;17.226;2023-02-12T14:17:55;103597.56;;;7.51;72.98
44872;BME280;30602;51.060;17.226;2023-02-12T14:21:36;103598.68;;;7.53;72.86
44872;BME280;30602;51.060;17.226;2023-02-12T14:40:29;103603.05;;;7.37;73.82
44872;BME280;30602;51.060;17.226;2023-02-12T14:43:36;103604.25;;;7.39;73.08
44872;BME280;30602;51.060;17.226;2023-02-12T14:51:03;103610.94;;;7.47;71.98
44872;BME280;30602;51.060;17.226;2023-02-12T14:57:39;103619.27;;;7.36;71.95
44872;BME280;30602;51.060;17.226;2023-02-12T15:00:54;103615.22;;;7.27;71.79
44872;BME280;30602;51.060;17.226;2023-02-12T15:04:36;103611.98;;;7.22;72.08
44872;BME280;30602;51.060;17.226;2023-02-12T15:08:07;103611.24;;;7.14;72.45
44872;BME280;30602;51.060;17.226;2023-02-12T15:11:51;103611.01;;;7.16;73.18
44872;BME280;30602;51.060;17.226;2023-02-12T15:15:12;103608.14;;;7.15;73.18
44872;BME280;30602;51.060;17.226;2023-02-12T15:21:51;103618.97;;;7.13;73.35
44872;BME280;30602;51.060;17.226;2023-02-12T15:25:15;103620.59;;;7.15;73.88
44872;BME280;30602;51.060;17.226;2023-02-12T15:28:39;103623.26;;;7.15;73.59
44872;BME280;30602;51.060;17.226;2023-02-12T15:32:21;103626.13;;;7.20;73.82
44872;BME280;30602;51.060;17.226;2023-02-12T15:35:33;103627.19;;;7.21;74.01
44872;BME280;30602;51.060;17.226;2023-02-12T15:38:47;103624.43;;;7.19;74.09
44872;BME280;30602;51.060;17.226;2023-02-12T15:42:01;103632.05;;;7.11;74.56
44872;BME280;30602;51.060;17.226;2023-02-12T15:45:27;103635.01;;;7.08;75.02
44872;BME280;30602;51.060;17.226;2023-02-12T15:49:19;103627.44;;;7.02;75.28
44872;BME280;30602;51.060;17.226;2023-02-12T15:52:38;103631.60;;;6.93;75.89
44872;BME280;30602;51.060;17.226;2023-02-12T15:55:48;103633.05;;;6.87;76.85
44872;BME280;30602;51.060;17.226;2023-02-12T15:59:18;103636.31;;;6.80;77.04
44872;BME280;30602;51.060;17.226;2023-02-12T16:02:39;103637.91;;;6.75;76.60
44872;BME280;30602;51.060;17.226;2023-02-12T16:05:51;103642.25;;;6.72;77.56
44872;BME280;30602;51.060;17.226;2023-02-12T16:09:04;103646.74;;;6.89;77.63
44872;BME280;30602;51.060;17.226;2023-02-12T16:12:26;103647.80;;;6.85;77.55
44872;BME280;30602;51.060;17.226;2023-02-12T16:15:40;103644.79;;;6.86;78.24
44872;BME280;30602;51.060;17.226;2023-02-12T16:22:41;103644.51;;;6.52;80.24
44872;BME280;30602;51.060;17.226;2023-02-12T16:26:24;103644.74;;;6.43;81.20
44872;BME280;30602;51.060;17.226;2023-02-12T16:29:49;103652.30;;;6.32;81.22
44872;BME280;30602;51.060;17.226;2023-02-12T16:44:39;103657.46;;;6.12;83.27
44872;BME280;30602;51.060;17.226;2023-02-12T16:51:26;103658.83;;;6.13;83.33
44872;BME280;30602;51.060;17.226;2023-02-12T16:55:08;103657.41;;;6.27;82.63
44872;BME280;30602;51.060;17.226;2023-02-12T16:58:32;103655.03;;;6.20;82.23
44872;BME280;30602;51.060;17.226;2023-02-12T17:02:00;103651.32;;;6.17;82.29
44872;BME280;30602;51.060;17.226;2023-02-12T17:05:14;103669.57;;;6.23;82.37
44872;BME280;30602;51.060;17.226;2023-02-12T17:08:38;103675.55;;;6.24;82.74
44872;BME280;30602;51.060;17.226;2023-02-12T17:11:49;103680.36;;;6.29;82.77
44872;BME280;30602;51.060;17.226;2023-02-12T17:15:03;103679.51;;;6.29;83.31
44872;BME280;30602;51.060;17.226;2023-02-12T17:18:13;103680.79;;;6.29;83.61
44872;BME280;30602;51.060;17.226;2023-02-12T17:21:34;103679.63;;;6.20;84.18
44872;BME280;30602;51.060;17.226;2023-02-12T17:24:53;103679.76;;;6.18;84.56
44872;BME280;30602;51.060;17.226;2023-02-12T17:28:18;103678.76;;;6.13;85.03
44872;BME280;30602;51.060;17.226;2023-02-12T17:31:53;103680.10;;;6.14;85.42
44872;BME280;30602;51.060;17.226;2023-02-12T17:35:01;103682.36;;;6.21;85.19
44872;BME280;30602;51.060;17.226;2023-02-12T17:38:17;103679.17;;;6.26;84.63
44872;BME280;30602;51.060;17.226;2023-02-12T17:41:32;103678.67;;;6.25;84.82
44872;BME280;30602;51.060;17.226;2023-02-12T17:44:41;103676.50;;;6.16;84.35
44872;BME280;30602;51.060;17.226;2023-02-12T17:47:54;103672.31;;;6.18;84.40
44872;BME280;30602;51.060;17.226;2023-02-12T17:51:09;103674.35;;;6.18;84.25
44872;BME280;30602;51.060;17.226;2023-02-12T17:54:22;103674.70;;;6.16;83.90
44872;BME280;30602;51.060;17.226;2023-02-12T17:57:58;103677.99;;;6.10;83.92
44872;BME280;30602;51.060;17.226;2023-02-12T18:01:22;103675.13;;;6.05;83.52
44872;BME280;30602;51.060;17.226;2023-02-12T18:04:41;103660.01;;;5.96;83.09
44872;BME280;30602;51.060;17.226;2023-02-12T18:07:55;103668.73;;;5.99;82.97
44872;BME280;30602;51.060;17.226;2023-02-12T18:11:10;103673.55;;;6.01;82.70
44872;BME280;30602;51.060;17.226;2023-02-12T18:14:37;103672.70;;;5.95;83.00
44872;BME280;30602;51.060;17.226;2023-02-12T18:18:10;103657.10;;;5.93;82.43
44872;BME280;30602;51.060;17.226;2023-02-12T18:21:27;103668.55;;;6.11;81.79
44872;BME280;30602;51.060;17.226;2023-02-12T18:24:42;103665.55;;;6.03;81.62
44872;BME280;30602;51.060;17.226;2023-02-12T18:28:21;103661.48;;;5.99;81.32
44872;BME280;30602;51.060;17.226;2023-02-12T18:31:35;103661.20;;;6.00;81.10
44872;BME280;30602;51.060;17.226;2023-02-12T18:34:45;103658.07;;;6.00;80.95
44872;BME280;30602;51.060;17.226;2023-02-12T18:38:13;103666.45;;;5.95;81.37
44872;BME280;30602;51.060;17.226;2023-02-12T18:41:30;103669.32;;;5.98;81.34
44872;BME280;30602;51.060;17.226;2023-02-12T18:44:43;103671.01;;;5.94;81.57
44872;BME280;30602;51.060;17.226;2023-02-12T18:47:52;103668.84;;;5.94;81.79
44872;BME280;30602;51.060;17.226;2023-02-12T18:51:23;103669.86;;;5.83;82.20
44872;BME280;30602;51.060;17.226;2023-02-12T18:54:57;103671.13;;;5.80;82.64
44872;BME280;30602;51.060;17.226;2023-02-12T18:58:25;103664.94;;;5.80;82.83
44872;BME280;30602;51.060;17.226;2023-02-12T19:01:39;103656.27;;;5.89;83.01
44872;BME280;30602;51.060;17.226;2023-02-12T19:04:50;103653.75;;;5.99;82.97
44872;BME280;30602;51.060;17.226;2023-02-12T19:08:06;103650.23;;;6.00;82.86
44872;BME280;30602;51.060;17.226;2023-02-12T19:11:24;103651.88;;;5.98;82.91
44872;BME280;30602;51.060;17.226;2023-02-12T19:14:34;103659.59;;;5.98;83.39
44872;BME280;30602;51.060;17.226;2023-02-12T19:17:52;103661.91;;;5.99;83.34
44872;BME280;30602;51.060;17.226;2023-02-12T19:21:21;103662.00;;;5.88;83.76
44872;BME280;30602;51.060;17.226;2023-02-12T19:24:34;103664.38;;;5.88;84.16
44872;BME280;30602;51.060;17.226;2023-02-12T19:28:08;103663.30;;;5.84;84.89
44872;BME280;30602;51.060;17.226;2023-02-12T19:31:52;103652.19;;;5.74;84.92
44872;BME280;30602;51.060;17.226;2023-02-12T19:35:09;103669.35;;;5.77;85.38
44872;BME280;30602;51.060;17.226;2023-02-12T19:38:25;103669.94;;;5.78;85.68
44872;BME280;30602;51.060;17.226;2023-02-12T19:42:01;103667.81;;;5.77;85.79
44872;BME280;30602;51.060;17.226;2023-02-12T19:45:39;103664.76;;;5.85;85.95
44872;BME280;30602;51.060;17.226;2023-02-12T19:49:00;103664.58;;;5.87;85.57
44872;BME280;30602;51.060;17.226;2023-02-12T19:52:29;103660.95;;;5.89;85.53
44872;BME280;30602;51.060;17.226;2023-02-12T19:56:03;103664.50;;;5.90;85.66
44872;BME280;30602;51.060;17.226;2023-02-12T19:59:17;103663.49;;;5.90;85.67
44872;BME280;30602;51.060;17.226;2023-02-12T20:02:33;103662.52;;;5.87;86.06
44872;BME280;30602;51.060;17.226;2023-02-12T20:06:09;103666.45;;;5.82;86.50
44872;BME280;30602;51.060;17.226;2023-02-12T20:09:20;103666.11;;;5.78;87.41
44872;BME280;30602;51.060;17.226;2023-02-12T20:12:43;103672.25;;;5.76;88.11
44872;BME280;30602;51.060;17.226;2023-02-12T20:16:14;103673.27;;;5.72;89.33
44872;BME280;30602;51.060;17.226;2023-02-12T20:19:38;103671.66;;;5.71;89.53
44872;BME280;30602;51.060;17.226;2023-02-12T20:23:38;103675.35;;;5.73;89.97
44872;BME280;30602;51.060;17.226;2023-02-12T20:27:00;103676.74;;;5.72;89.96
44872;BME280;30602;51.060;17.226;2023-02-12T20:30:18;103672.77;;;5.72;90.24
44872;BME280;30602;51.060;17.226;2023-02-12T20:33:38;103659.36;;;5.75;90.90
44872;BME280;30602;51.060;17.226;2023-02-12T20:37:18;103670.38;;;5.87;91.61
44872;BME280;30602;51.060;17.226;2023-02-12T20:42:12;103677.11;;;5.85;93.23
44872;BME280;30602;51.060;17.226;2023-02-12T20:45:25;103683.48;;;5.72;94.00
44872;BME280;30602;51.060;17.226;2023-02-12T20:49:15;103683.96;;;5.63;95.09
44872;BME280;30602;51.060;17.226;2023-02-12T20:52:46;103685.22;;;5.61;95.88
44872;BME280;30602;51.060;17.226;2023-02-12T20:56:25;103672.41;;;5.50;96.54
44872;BME280;30602;51.060;17.226;2023-02-12T20:59:49;103684.42;;;5.56;97.06
44872;BME280;30602;51.060;17.226;2023-02-12T21:03:29;103683.52;;;5.52;98.08
44872;BME280;30602;51.060;17.226;2023-02-12T21:06:48;103683.38;;;5.51;98.54